Latest Weather Observations for Coonawarra

IDS60801

Issued at 2:31 am CST Tuesday 4 August 2015 (issued every 30 minutes, with the page automatically refreshed every 10 minutes)

About weather observations | Map of weather stations | Latest weather observations for SA | Other Formats
Station Details ID: 026091 Name: COONAWARRA Lat: -37.29 Lon: 140.83 Height: 57.0 m
Data from the previous 72 hours. | See also: Recent months at Coonawarra
Date/Time
CST
Temp
°C
App
Temp
°C
Dew
Point
Rel
Hum
%
Delta-T
°C
Wind Press
QNH
hPa
Press
MSL
hPa
Rain
since 9 am
mm
Dir
 
Spd
km/h
Gust
km/h
Spd
kts
Gust
kts
04/02:30am 3.0 -1.1 2.5 96 0.2 N 13 15 7 8 1025.0 1025.0 0.4
04/02:00am 3.7 0.5 3.0 95 0.3 NNW 9 13 5 7 1025.2 1025.2 0.4
04/01:30am 3.9 0.7 3.2 95 0.3 NNW 9 13 5 7 1025.2 1025.2 0.4
04/01:00am 3.3 0.0 2.5 94 0.3 NNW 9 11 5 6 1025.2 1025.2 0.4
04/12:30am 3.3 0.0 2.5 94 0.3 NNW 9 11 5 6 1025.3 1025.4 0.4
04/12:00am 3.1 0.1 2.3 94 0.3 NW 7 9 4 5 1025.7 1025.8 0.4
 
Date/Time
CST
Temp
°C
App
Temp
°C
Dew
Point
Rel
Hum
%
Delta-T
°C
Wind Press
QNH
hPa
Press
MSL
hPa
Rain
since 9 am
mm
Dir
 
Spd
km/h
Gust
km/h
Spd
kts
Gust
kts
03/11:30pm 3.2 0.3 2.4 94 0.3 NNW 7 9 4 5 1025.6 1025.7 0.4
03/11:00pm 1.7 -1.5 0.9 94 0.3 NNW 7 11 4 6 1025.6 1025.7 0.4
03/10:30pm 1.9 -1.3 0.8 92 0.4 NNW 7 9 4 5 1025.5 1025.6 0.4
03/10:00pm 2.3 -0.8 1.2 92 0.4 NW 7 7 4 4 1025.7 1025.8 0.4
03/09:30pm 2.9 -0.2 1.6 91 0.5 WNW 7 7 4 4 1025.8 1025.9 0.4
03/09:00pm 3.8 1.0 2.3 90 0.6 SW 6 7 3 4 1025.9 1026.0 0.4
03/08:30pm 5.0 2.7 2.8 86 0.9 SW 4 7 2 4 1025.9 1026.0 0.4
03/08:00pm 5.6 2.4 2.9 83 1.1 W 9 13 5 7 1025.9 1026.0 0.4
03/07:30pm 5.4 2.5 2.7 83 1.1 WSW 7 9 4 5 1025.7 1025.8 0.4
03/07:00pm 6.4 3.2 3.0 79 1.4 WSW 9 11 5 6 1025.5 1025.6 0.4
03/06:30pm 7.0 3.7 2.7 74 1.8 WSW 9 11 5 6 1025.3 1025.4 0.4
03/06:00pm 6.6 3.4 3.0 78 1.5 WSW 9 11 5 6 1025.0 1025.0 0.4
03/05:30pm 7.0 4.4 3.4 78 1.5 SW 6 7 3 4 1024.6 1024.6 0.4
03/05:00pm 8.2 4.9 2.4 67 2.4 SW 9 9 5 5 1024.4 1024.4 0.4
03/04:30pm 9.1 4.5 1.3 58 3.2 SW 15 20 8 11 1024.1 1024.1 0.4
03/04:00pm 9.0 4.8 1.4 59 3.1 SW 13 17 7 9 1023.9 1023.9 0.4
03/03:30pm 8.5 2.3 2.3 65 2.6 SSW 24 39 13 21 1023.7 1023.7 0.4
03/03:00pm 8.8 4.3 4.2 73 2.0 SW 17 24 9 13 1023.3 1023.4 0.4
03/02:40pm 9.0 3.9 3.9 70 2.2 SW 20 44 11 24 1023.1 1023.2 0.2
03/02:30pm 10.6 6.3 3.0 59 3.3 SSW 15 20 8 11 1022.9 1023.0 0.2
03/02:00pm 10.1 4.9 2.3 58 3.3 SSW 19 26 10 14 1022.8 1022.9 0.2
03/01:30pm 8.7 4.5 3.6 70 2.2 SW 15 26 8 14 1023.0 1023.1 0.2
03/01:07pm 9.8 2.9 2.8 61 3.0 SSW 28 46 15 25 1022.9 1023.0 0.2
03/01:00pm 10.9 5.5 2.5 56 3.6 SSW 20 32 11 17 1022.8 1022.9 0.2
03/12:30pm 9.9 4.7 3.5 64 2.8 SW 20 30 11 16 1022.8 1022.9 0.2
03/12:00pm 8.5 3.3 5.4 81 1.4 SSW 22 28 12 15 1023.1 1023.2 0.2
03/11:34am 9.3 2.4 2.7 63 2.8 SW 28 59 15 32 1022.8 1022.9 0.0
03/11:30am 10.4 4.1 1.5 54 3.7 SW 24 35 13 19 1022.7 1022.8 0.0
03/11:00am 9.9 5.0 4.2 67 2.5 SSW 19 24 10 13 1022.8 1022.9 0.0
03/10:30am 9.6 4.6 3.6 66 2.6 SSW 19 30 10 16 1022.8 1022.9 0.0
03/10:00am 8.5 4.0 4.1 74 1.9 SSW 17 22 9 12 1022.6 1022.7 0.0
03/09:30am 8.9 3.7 3.8 70 2.2 SSW 20 26 11 14 1021.9 1022.0 0.0
03/09:00am 8.1 5.2 4.4 77 1.6 SW 9 15 5 8 1021.6 1021.7 3.0
03/08:30am 7.5 2.5 3.8 77 1.6 SW 19 24 10 13 1021.1 1021.2 3.0
03/08:00am 7.2 1.9 3.2 76 1.7 SSW 20 32 11 17 1020.6 1020.7 3.0
03/07:30am 6.5 3.0 3.7 82 1.2 WSW 11 13 6 7 1020.0 1020.1 3.0
03/07:00am 6.6 3.6 4.3 85 1.0 SW 9 13 5 7 1019.6 1019.7 3.0
03/06:30am 6.4 3.9 4.8 89 0.7 SW 7 13 4 7 1019.3 1019.4 3.0
03/06:00am 6.8 3.2 5.2 89 0.7 SW 13 17 7 9 1018.5 1018.6 3.0
03/05:30am 7.8 3.0 5.8 87 0.9 WSW 20 28 11 15 1018.1 1018.2 3.0
03/05:00am 8.2 2.9 4.8 79 1.5 WSW 22 28 12 15 1017.5 1017.6 2.8
03/04:30am 8.1 4.2 5.2 82 1.3 WSW 15 22 8 12 1017.2 1017.3 2.4
03/04:00am 7.9 3.6 5.4 84 1.1 WSW 17 22 9 12 1016.9 1017.0 2.4
03/03:30am 7.9 3.3 5.4 84 1.1 WSW 19 26 10 14 1016.6 1016.7 2.4
03/03:00am 8.5 3.2 6.6 88 0.9 WSW 24 39 13 21 1016.8 1016.9 2.4
03/02:30am 8.2 3.8 6.7 90 0.7 W 19 24 10 13 1016.6 1016.7 2.2
03/02:00am 8.5 3.2 6.8 89 0.8 W 24 30 13 16 1016.5 1016.6 2.2
03/01:30am 8.8 3.4 6.2 84 1.2 W 24 35 13 19 1016.7 1016.8 2.0
03/01:00am 8.8 1.9 6.4 85 1.1 WSW 32 44 17 24 1016.5 1016.6 2.0
03/12:50am 9.2 2.9 5.7 79 1.6 W 28 50 15 27 1016.4 1016.5 1.8
03/12:30am 8.8 3.2 5.5 80 1.5 W 24 35 13 19 1016.1 1016.2 1.8
03/12:00am 8.7 3.1 5.6 81 1.4 W 24 32 13 17 1016.1 1016.2 1.8
 
Date/Time
CST
Temp
°C
App
Temp
°C
Dew
Point
Rel
Hum
%
Delta-T
°C
Wind Press
QNH
hPa
Press
MSL
hPa
Rain
since 9 am
mm
Dir
 
Spd
km/h
Gust
km/h
Spd
kts
Gust
kts
02/11:30pm 9.0 1.9 5.7 80 1.5 W 32 52 17 28 1016.0 1016.1 1.8
02/11:27pm 9.1 1.8 5.6 79 1.6 W 33 52 18 28 1015.9 1016.0 1.8
02/11:00pm 8.6 2.7 6.0 84 1.2 WNW 26 39 14 21 1015.9 1016.0 1.8
02/10:30pm 8.6 3.1 6.0 84 1.2 W 24 39 13 21 1016.1 1016.2 1.6
02/10:00pm 8.6 4.1 6.2 85 1.1 W 19 22 10 12 1016.0 1016.1 1.2
02/09:30pm 8.4 3.7 6.2 86 1.0 WNW 20 30 11 16 1015.9 1016.0 1.2
02/09:00pm 8.7 2.4 5.6 81 1.4 WNW 28 44 15 24 1016.1 1016.2 1.2
02/08:59pm 8.7 2.3 5.4 80 1.5 WNW 28 44 15 24 1016.1 1016.2 1.2
02/08:30pm 8.3 4.0 5.4 82 1.3 WNW 17 24 9 13 1015.5 1015.6 1.0
02/08:00pm 8.7 3.2 5.8 82 1.3 WNW 24 35 13 19 1015.5 1015.6 1.0
02/07:30pm 8.8 4.2 6.4 85 1.1 WNW 20 30 11 16 1015.4 1015.5 1.0
02/07:00pm 9.2 4.2 4.7 73 2.0 WNW 20 28 11 15 1015.2 1015.3 0.8
02/06:30pm 9.3 4.2 4.3 71 2.2 W 20 32 11 17 1014.9 1015.0 0.8
02/06:00pm 9.7 3.0 3.5 65 2.7 W 28 37 15 20 1014.7 1014.8 0.8
02/05:30pm 9.7 4.0 4.8 71 2.2 W 24 33 13 18 1014.5 1014.6 0.8
02/05:00pm 10.3 5.2 6.2 76 1.9 W 22 30 12 16 1014.3 1014.4 0.8
02/04:30pm 10.8 3.7 5.6 70 2.4 W 32 43 17 23 1014.0 1014.1 0.8
02/04:00pm 10.8 4.3 6.3 74 2.1 WSW 30 43 16 23 1013.7 1013.8 0.8
02/03:32pm 11.5 3.9 5.9 68 2.6 W 35 54 19 29 1013.5 1013.6 0.8
02/03:30pm 11.5 4.6 7.1 74 2.1 W 33 48 18 26 1013.5 1013.6 0.8
02/03:00pm 10.7 4.0 8.0 83 1.3 W 33 56 18 30 1013.6 1013.7 0.8
02/02:53pm 11.0 4.0 8.6 85 1.2 WNW 35 56 19 30 1013.4 1013.5 0.6
02/02:30pm 11.5 5.9 8.9 84 1.3 WNW 28 39 15 21 1013.1 1013.2 0.6
02/02:06pm 10.9 4.6 9.1 89 0.9 W 32 52 17 28 1013.2 1013.3 0.4
02/02:00pm 11.2 4.3 9.0 86 1.1 W 35 52 19 28 1013.1 1013.2 0.4
02/01:30pm 13.4 4.6 5.5 59 3.7 WNW 41 59 22 32 1012.4 1012.5 0.0
02/01:00pm 13.6 5.6 5.8 59 3.7 WNW 37 57 20 31 1012.7 1012.8 0.0
02/12:30pm 13.0 4.9 5.3 59 3.6 WNW 37 57 20 31 1013.3 1013.4 0.0
02/12:11pm 13.4 6.6 6.8 64 3.2 WNW 32 50 17 27 1013.4 1013.5 0.0
02/12:00pm 12.8 6.0 6.8 67 2.9 WNW 32 43 17 23 1013.6 1013.7 0.0
02/11:45am 12.5 5.6 7.4 71 2.5 WNW 33 52 18 28 1013.9 1014.0 0.0
02/11:30am 12.1 4.7 6.9 70 2.5 WNW 35 50 19 27 1014.0 1014.1 0.0
02/11:09am 11.8 4.1 7.2 73 2.2 WNW 37 56 20 30 1014.4 1014.5 0.0
02/11:00am 11.2 3.1 6.8 74 2.1 WNW 39 56 21 30 1014.4 1014.5 0.0
02/10:54am 11.8 4.9 6.3 69 2.6 WNW 32 52 17 28 1014.3 1014.4 0.0
02/10:30am 11.5 5.1 6.9 73 2.2 NW 30 39 16 21 1014.4 1014.5 0.0
02/10:00am 11.3 6.1 7.1 75 2.0 NW 24 33 13 18 1014.4 1014.5 0.0
02/09:30am 9.9 5.0 6.7 80 1.5 NNW 22 30 12 16 1014.5 1014.6 0.0
02/09:00am 8.1 3.7 6.4 89 0.8 NNW 19 24 10 13 1014.7 1014.8 0.2
02/08:30am 7.0 2.4 5.4 89 0.7 NNW 19 26 10 14 1014.8 1014.9 0.2
02/08:00am 6.1 1.2 5.0 93 0.5 NW 20 26 11 14 1014.9 1015.0 0.2
02/07:30am 5.3 0.4 4.1 92 0.5 NNW 19 26 10 14 1014.8 1014.9 0.2
02/07:00am 5.4 0.9 4.0 91 0.6 NNW 17 22 9 12 1014.5 1014.6 0.2
02/06:30am 4.9 0.3 3.9 93 0.4 NNW 17 22 9 12 1014.5 1014.6 0.0
02/06:00am 5.2 1.4 4.0 92 0.5 NNW 13 17 7 9 1014.5 1014.6 0.0
02/05:30am 5.5 1.7 4.1 91 0.6 NNW 13 20 7 11 1014.5 1014.6 0.0
02/05:00am 5.4 1.1 3.5 87 0.8 N 15 17 8 9 1014.6 1014.7 0.0
02/04:30am 5.5 1.3 3.8 89 0.7 NNW 15 19 8 10 1014.9 1015.0 0.0
02/04:00am 5.6 1.8 3.7 87 0.8 NNW 13 17 7 9 1014.9 1015.0 0.0
02/03:30am 6.3 2.9 4.0 85 1.0 NW 11 15 6 8 1015.1 1015.2 0.0
02/03:00am 5.5 2.0 3.6 87 0.8 NNW 11 13 6 7 1015.3 1015.4 0.0
02/02:30am 5.8 2.0 3.7 86 0.9 NNW 13 17 7 9 1015.5 1015.6 0.0
02/02:00am 6.1 2.3 4.0 86 0.9 N 13 17 7 9 1015.6 1015.7 0.0
02/01:30am 6.5 3.1 4.2 85 1.0 NNW 11 13 6 7 1016.0 1016.1 0.0
02/01:00am 6.5 3.1 4.2 85 1.0 N 11 13 6 7 1015.9 1016.0 0.0
02/12:30am 7.2 3.9 4.4 82 1.2 WNW 11 15 6 8 1016.4 1016.5 0.0
02/12:00am 7.0 3.5 3.7 79 1.4 NNW 11 15 6 8 1016.4 1016.5 0.0
 
Date/Time
CST
Temp
°C
App
Temp
°C
Dew
Point
Rel
Hum
%
Delta-T
°C
Wind Press
QNH
hPa
Press
MSL
hPa
Rain
since 9 am
mm
Dir
 
Spd
km/h
Gust
km/h
Spd
kts
Gust
kts
01/11:30pm 6.9 3.5 3.9 81 1.3 NW 11 13 6 7 1016.6 1016.7 0.0
01/11:00pm 6.8 3.8 4.2 83 1.1 NNW 9 13 5 7 1016.6 1016.7 0.0
01/10:30pm 6.7 3.3 4.1 83 1.1 NNW 11 13 6 7 1016.8 1016.9 0.0
01/10:00pm 6.5 3.2 4.4 86 0.9 N 11 15 6 8 1017.0 1017.1 0.0
01/09:30pm 6.9 3.6 4.4 84 1.1 NNW 11 15 6 8 1016.9 1017.0 0.0
01/09:00pm 7.4 4.1 4.4 81 1.3 N 11 15 6 8 1016.9 1017.0 0.0
01/08:30pm 7.5 5.0 4.5 81 1.3 N 7 9 4 5 1016.8 1016.9 0.0
01/08:00pm 7.3 4.0 4.3 81 1.3 N 11 13 6 7 1016.9 1017.0 0.0
01/07:30pm 7.6 4.6 4.1 78 1.5 NNW 9 11 5 6 1017.0 1017.1 0.0
01/07:00pm 7.6 5.0 4.4 80 1.4 WNW 7 9 4 5 1016.6 1016.7 0.0
01/06:30pm 8.0 5.5 4.8 80 1.4 WNW 7 7 4 4 1016.4 1016.5 0.0
01/06:00pm 8.4 5.9 4.0 74 1.9 WSW 6 7 3 4 1016.2 1016.3 0.0
01/05:30pm 9.0 6.4 4.2 72 2.1 WSW 7 9 4 5 1016.1 1016.2 0.0
01/05:00pm 9.7 6.7 4.0 67 2.5 WSW 9 13 5 7 1016.1 1016.2 0.0
01/04:30pm 10.1 6.5 3.2 62 3.0 WSW 11 13 6 7 1015.8 1015.9 0.0
01/04:00pm 10.5 7.1 2.0 55 3.6 NW 9 13 5 7 1015.8 1015.9 0.0
01/03:30pm 10.8 7.0 1.8 54 3.8 WNW 11 13 6 7 1015.9 1016.0 0.0
01/03:00pm 10.7 7.2 1.4 52 3.9 NW 9 13 5 7 1015.7 1015.8 0.0
01/02:30pm 10.9 7.3 0.4 48 4.3 WSW 9 13 5 7 1015.5 1015.6 0.0
01/02:00pm 10.9 7.0 1.4 52 4.0 WSW 11 15 6 8 1015.5 1015.6 0.0
01/01:30pm 11.0 7.4 0.9 49 4.2 SW 9 15 5 8 1015.9 1016.0 0.0
01/01:00pm 10.9 6.1 0.1 47 4.4 SW 15 20 8 11 1015.9 1016.0 0.0
01/12:30pm 10.9 6.0 -0.2 46 4.5 SW 15 20 8 11 1016.0 1016.1 0.0
01/12:00pm 10.8 5.3 0.3 48 4.3 SSW 19 22 10 12 1016.2 1016.3 0.0
01/11:30am 10.7 6.1 1.7 53 3.8 SSW 15 19 8 10 1016.5 1016.6 0.0
01/11:00am 10.4 6.3 2.5 58 3.4 S 13 17 7 9 1016.3 1016.4 0.0
01/10:30am 9.9 6.7 2.9 62 3.0 SSW 9 15 5 8 1016.2 1016.3 0.0
01/10:00am 8.8 5.8 4.0 72 2.1 SW 9 13 5 7 1016.0 1016.1 0.0
01/09:30am 8.3 5.8 4.9 79 1.5 SW 7 9 4 5 1016.0 1016.1 0.0
01/09:00am 8.1 5.8 5.9 86 1.0 SW 7 9 4 5 1015.8 1015.9 1.0
01/08:30am 7.6 5.5 6.5 93 0.5 SW 7 11 4 6 1015.3 1015.4 1.0
01/08:00am 7.2 5.1 6.5 95 0.3 WSW 7 7 4 4 1014.9 1015.0 1.0
01/07:30am 7.5 6.8 6.9 96 0.3 CALM 0 0 0 0 1013.8 1013.9 1.0
01/07:00am 7.8 5.8 6.9 94 0.4 SSW 7 9 4 5 1013.4 1013.5 1.0
01/06:30am 8.0 6.2 7.1 94 0.4 SSW 6 7 3 4 1013.0 1013.1 1.0
01/06:00am 8.3 5.6 7.2 93 0.5 SSW 11 15 6 8 1012.4 1012.5 1.0
01/05:30am 8.8 4.6 7.5 91 0.6 SSW 19 28 10 15 1012.0 1012.1 1.0
01/05:00am 9.0 5.4 8.2 95 0.4 SSW 17 26 9 14 1011.4 1011.5 1.0
01/04:30am 9.3 4.4 8.3 93 0.5 SSW 24 33 13 18 1010.9 1011.0 0.8
01/04:00am 10.5 5.5 9.5 93 0.5 WSW 26 37 14 20 1009.9 1010.0 0.6
01/03:30am 11.0 7.4 9.8 92 0.6 WSW 19 24 10 13 1009.4 1009.5 0.4
01/03:00am 11.1 7.3 8.9 86 1.1 NNW 19 24 10 13 1008.9 1009.0 0.0

Other Formats:

Comma delimited format used in spreadsheet applications
http://www.bom.gov.au/fwo/IDS60801/IDS60801.94817.axf

JavaScript Object Notation format (JSON) in row-major order
http://www.bom.gov.au/fwo/IDS60801/IDS60801.94817.json